Kezdőlap
METAR-TAF:

METAR-TAF

Repülőterek :

Provincetown Municipal Airport

Provincetown, Massachusetts, Amerikai Egyesült Államok

földrajzi szélesség: 42-04N, földrajzi hosszúság: 070-13W, magasság: 2 m

Jelenlegi meteorológiai megfigyelések

A jelentés 51 perccel ezelõtt készült, 22:56 UTC
Dél-délnyugati szél 10 kt
Hőmérséklet -4°C
Páratartalom 68%
Légköri nyomás 1024 hPa
Látótávolság: 16.1 km
Szakadozott felhőzet 7500 lábon

METAR: KPVC 182256Z AUTO 21010KT 10SM BKN075 M04/M09 A3024 RMK AO2 SLP240 T10391089 FZRANO PNO $

Idő: 18:47 (23:47 UTC)


TAF: hiányzik

Meteorológiai megfigyelések és előrejelzések több, mint 4000 repülőtéren (METAR és TAF jelentéseket).

A térképen piros és sárga pontok jelzik az elérhető meteorológiai állomásokat.

Mozgassa az egeret a pont fölött, hogy megjelenjen az állomás neve.

Azután kattintson az időjárási megfigyelések és előrejelzések megtekintéséhez.

A térkép megváltoztatása: kattintson a fekete keresztel jelölt zöld gombra ráközelítéshez, a vonallal jelölt zöld gombra távolításhoz, vagy a zöld nyilakra a szomszédos térképek eléréséhez.


METAR-TAF: